DLH141 LHBP-EDDH
Flight info
| Callsign | DLH141 |
|---|---|
| Flight time | N/A |
| Altitude | 36000 |
| Route | BADOV DCT MAVOR DCT KATQA DCT HDO M748 RENDO DCT BOLBO M748 ESIKA DCT SOGMA M748 RARUP RARUP6A |
| Aircraft | A320/M-SDE3FGHIRWY/LB1 |
Departure
| Time | 2026-05-07 11:21 |
|---|---|
| Airport | Budapest Liszt Ferenc International Airport (LHBP) |
Arrival
| Time | N/A |
|---|---|
| Airport | Hamburg Helmut Schmidt Airport (EDDH) |
| Time | Latitude | Longitude | Altitude | Speed | Heading |
|---|---|---|---|---|---|
| 2026-05-07 10:44 | 47.43449 | 19.26170 | 456 ft | 0 kts | 177° |
| 2026-05-07 11:12 | 47.43458 | 19.26169 | 457 ft | 4 kts | 174° |
| 2026-05-07 11:12 | 47.43484 | 19.26161 | 455 ft | 4 kts | 157° |
| 2026-05-07 11:12 | 47.43504 | 19.26147 | 456 ft | 3 kts | 152° |
| 2026-05-07 11:12 | 47.43527 | 19.26135 | 457 ft | 4 kts | 188° |
| 2026-05-07 11:13 | 47.43551 | 19.26150 | 456 ft | 4 kts | 220° |
| 2026-05-07 11:13 | 47.43556 | 19.26156 | 456 ft | 1 kts | 222° |
| 2026-05-07 11:16 | 47.43555 | 19.26155 | 456 ft | 1 kts | 222° |
| 2026-05-07 11:16 | 47.43545 | 19.26142 | 457 ft | 3 kts | 222° |
| 2026-05-07 11:16 | 47.43521 | 19.26110 | 457 ft | 6 kts | 222° |
| 2026-05-07 11:17 | 47.43484 | 19.26060 | 456 ft | 8 kts | 222° |
| 2026-05-07 11:17 | 47.43438 | 19.25998 | 456 ft | 10 kts | 222° |
| 2026-05-07 11:17 | 47.43433 | 19.25916 | 456 ft | 10 kts | 309° |
| 2026-05-07 11:17 | 47.43476 | 19.25846 | 457 ft | 8 kts | 308° |
| 2026-05-07 11:18 | 47.43505 | 19.25779 | 457 ft | 8 kts | 309° |
| 2026-05-07 11:18 | 47.43539 | 19.25719 | 457 ft | 8 kts | 304° |
| 2026-05-07 11:18 | 47.43533 | 19.25641 | 457 ft | 9 kts | 231° |
| 2026-05-07 11:18 | 47.43482 | 19.25573 | 456 ft | 11 kts | 222° |
| 2026-05-07 11:19 | 47.43421 | 19.25490 | 457 ft | 13 kts | 222° |
| 2026-05-07 11:19 | 47.43351 | 19.25397 | 456 ft | 14 kts | 222° |
| 2026-05-07 11:19 | 47.43274 | 19.25295 | 457 ft | 15 kts | 222° |
| 2026-05-07 11:19 | 47.43192 | 19.25183 | 457 ft | 17 kts | 222° |
| 2026-05-07 11:20 | 47.43106 | 19.25065 | 457 ft | 15 kts | 231° |
| 2026-05-07 11:20 | 47.43103 | 19.24940 | 457 ft | 13 kts | 302° |
| 2026-05-07 11:20 | 47.43154 | 19.24854 | 457 ft | 0 kts | 312° |
| 2026-05-07 11:20 | 47.43175 | 19.24820 | 456 ft | 23 kts | 312° |
| 2026-05-07 11:21 | 47.43464 | 19.24351 | 451 ft | 96 kts | 312° |
| 2026-05-07 11:21 | 47.44055 | 19.23397 | 455 ft | 150 kts | 312° |
| 2026-05-07 11:21 | 47.44836 | 19.22153 | 813 ft | 166 kts | 310° |
| 2026-05-07 11:21 | 47.45603 | 19.20965 | 1681 ft | 161 kts | 309° |
| 2026-05-07 11:22 | 47.46402 | 19.19792 | 2351 ft | 161 kts | 306° |
| 2026-05-07 11:22 | 47.47194 | 19.18485 | 2714 ft | 181 kts | 304° |
| 2026-05-07 11:22 | 47.48078 | 19.16995 | 3034 ft | 205 kts | 308° |
| 2026-05-07 11:22 | 47.49169 | 19.15466 | 3417 ft | 226 kts | 314° |
| 2026-05-07 11:23 | 47.50434 | 19.13889 | 3826 ft | 249 kts | 316° |
| 2026-05-07 11:23 | 47.51831 | 19.12206 | 4406 ft | 266 kts | 317° |
| 2026-05-07 11:23 | 47.53290 | 19.10467 | 5220 ft | 272 kts | 317° |
| 2026-05-07 11:23 | 47.54770 | 19.08697 | 6090 ft | 275 kts | 317° |
| 2026-05-07 11:24 | 47.56268 | 19.06893 | 6815 ft | 280 kts | 316° |
| 2026-05-07 11:24 | 47.57773 | 19.05063 | 7681 ft | 281 kts | 316° |
| 2026-05-07 11:24 | 47.59287 | 19.03212 | 8523 ft | 284 kts | 316° |
| 2026-05-07 11:24 | 47.60818 | 19.01334 | 9354 ft | 287 kts | 316° |
| 2026-05-07 11:25 | 47.62486 | 18.99652 | 10149 ft | 296 kts | 331° |
| 2026-05-07 11:25 | 47.64536 | 18.98774 | 10528 ft | 322 kts | 352° |
| 2026-05-07 11:25 | 47.66820 | 18.99123 | 11024 ft | 340 kts | 15° |
| 2026-05-07 11:25 | 47.68928 | 19.00761 | 11702 ft | 348 kts | 38° |
| 2026-05-07 11:26 | 47.70775 | 19.03193 | 12153 ft | 361 kts | 42° |
| 2026-05-07 11:26 | 47.72631 | 19.05758 | 12780 ft | 367 kts | 43° |
| 2026-05-07 11:26 | 47.74500 | 19.08379 | 13491 ft | 371 kts | 42° |
| 2026-05-07 11:26 | 47.76568 | 19.10670 | 14117 ft | 373 kts | 25° |
| 2026-05-07 11:27 | 47.79031 | 19.11806 | 14710 ft | 372 kts | 4° |
| 2026-05-07 11:27 | 47.81593 | 19.11598 | 15305 ft | 369 kts | 343° |
| 2026-05-07 11:27 | 47.83938 | 19.10121 | 15883 ft | 366 kts | 323° |
| 2026-05-07 11:27 | 47.85836 | 19.07630 | 16482 ft | 365 kts | 310° |
| 2026-05-07 11:28 | 47.87582 | 19.04860 | 17066 ft | 369 kts | 310° |
| 2026-05-07 11:28 | 47.89337 | 19.02052 | 17643 ft | 372 kts | 310° |
| 2026-05-07 11:28 | 47.91106 | 18.99212 | 18230 ft | 376 kts | 309° |
| 2026-05-07 11:28 | 47.92312 | 18.97279 | 18580 ft | 378 kts | 309° |
| 2026-05-07 11:29 | 47.94110 | 18.94399 | 19093 ft | 381 kts | 309° |
| 2026-05-07 11:29 | 47.95925 | 18.91494 | 19624 ft | 384 kts | 309° |
| 2026-05-07 11:29 | 47.97752 | 18.88568 | 20137 ft | 387 kts | 309° |
| 2026-05-07 11:29 | 47.99596 | 18.85613 | 20624 ft | 390 kts | 309° |
| 2026-05-07 11:30 | 48.01457 | 18.82636 | 21112 ft | 393 kts | 309° |
| 2026-05-07 11:30 | 48.03332 | 18.79642 | 21591 ft | 397 kts | 309° |
| 2026-05-07 11:30 | 48.05243 | 18.76638 | 22070 ft | 400 kts | 310° |
| 2026-05-07 11:30 | 48.07178 | 18.73626 | 22541 ft | 403 kts | 310° |
| 2026-05-07 11:31 | 48.09131 | 18.70595 | 23002 ft | 406 kts | 310° |
| 2026-05-07 11:31 | 48.11098 | 18.67543 | 23453 ft | 409 kts | 310° |
| 2026-05-07 11:31 | 48.13077 | 18.64459 | 23856 ft | 412 kts | 310° |
| 2026-05-07 11:31 | 48.15059 | 18.61353 | 24243 ft | 414 kts | 309° |
| 2026-05-07 11:32 | 48.19042 | 18.55080 | 25031 ft | 417 kts | 309° |
| 2026-05-07 11:32 | 48.21042 | 18.51918 | 25417 ft | 419 kts | 309° |
| 2026-05-07 11:32 | 48.23054 | 18.48737 | 25796 ft | 421 kts | 309° |
| 2026-05-07 11:33 | 48.25070 | 18.45550 | 26174 ft | 423 kts | 309° |
| 2026-05-07 11:33 | 48.27101 | 18.42339 | 26536 ft | 425 kts | 309° |
| 2026-05-07 11:33 | 48.29137 | 18.39115 | 26903 ft | 427 kts | 309° |
| 2026-05-07 11:33 | 48.31180 | 18.35876 | 27261 ft | 429 kts | 309° |
| 2026-05-07 11:34 | 48.33238 | 18.32614 | 27615 ft | 431 kts | 309° |
| 2026-05-07 11:34 | 48.35329 | 18.29297 | 27971 ft | 433 kts | 308° |
| 2026-05-07 11:34 | 48.37375 | 18.26044 | 28325 ft | 435 kts | 308° |
| 2026-05-07 11:34 | 48.39454 | 18.22730 | 28679 ft | 436 kts | 308° |
| 2026-05-07 11:35 | 48.41569 | 18.19355 | 29037 ft | 438 kts | 308° |
| 2026-05-07 11:35 | 48.43663 | 18.16006 | 29368 ft | 440 kts | 308° |
| 2026-05-07 11:35 | 48.45767 | 18.12635 | 29701 ft | 442 kts | 308° |
| 2026-05-07 11:35 | 48.47879 | 18.09248 | 29998 ft | 444 kts | 308° |
| 2026-05-07 11:36 | 48.50001 | 18.05847 | 30256 ft | 446 kts | 308° |
| 2026-05-07 11:36 | 48.52131 | 18.02433 | 30509 ft | 448 kts | 308° |
| 2026-05-07 11:36 | 48.54267 | 17.99004 | 30764 ft | 449 kts | 308° |
| 2026-05-07 11:36 | 48.56410 | 17.95555 | 31022 ft | 451 kts | 308° |
| 2026-05-07 11:37 | 48.58552 | 17.92103 | 31368 ft | 450 kts | 308° |
| 2026-05-07 11:37 | 48.60689 | 17.88659 | 31732 ft | 449 kts | 307° |
| 2026-05-07 11:37 | 48.62822 | 17.85220 | 32082 ft | 448 kts | 307° |
| 2026-05-07 11:37 | 48.64946 | 17.81790 | 32436 ft | 447 kts | 307° |
| 2026-05-07 11:38 | 48.67063 | 17.78360 | 32789 ft | 446 kts | 307° |
| 2026-05-07 11:38 | 48.69176 | 17.74929 | 33131 ft | 445 kts | 307° |
| 2026-05-07 11:38 | 48.71280 | 17.71501 | 33477 ft | 444 kts | 307° |
| 2026-05-07 11:38 | 48.73375 | 17.68079 | 33831 ft | 443 kts | 307° |
| 2026-05-07 11:39 | 48.75472 | 17.64654 | 34155 ft | 442 kts | 307° |
| 2026-05-07 11:39 | 48.77562 | 17.61241 | 34435 ft | 442 kts | 307° |
| 2026-05-07 11:39 | 48.79650 | 17.57824 | 34690 ft | 442 kts | 307° |
| 2026-05-07 11:39 | 48.81736 | 17.54407 | 34938 ft | 442 kts | 307° |
| 2026-05-07 11:40 | 48.83858 | 17.51023 | 35184 ft | 443 kts | 308° |
| 2026-05-07 11:40 | 48.86045 | 17.47717 | 35413 ft | 444 kts | 310° |
| 2026-05-07 11:40 | 48.88271 | 17.44464 | 35630 ft | 445 kts | 310° |
| 2026-05-07 11:40 | 48.90518 | 17.41222 | 35853 ft | 445 kts | 310° |
| 2026-05-07 11:41 | 48.92758 | 17.37979 | 35964 ft | 444 kts | 310° |
| 2026-05-07 11:41 | 48.97176 | 17.31470 | 35975 ft | 441 kts | 309° |
| 2026-05-07 11:42 | 49.01541 | 17.24914 | 35977 ft | 441 kts | 309° |
| 2026-05-07 11:42 | 49.05966 | 17.18414 | 35975 ft | 442 kts | 311° |
| 2026-05-07 11:43 | 49.10518 | 17.11996 | 35974 ft | 443 kts | 311° |
| 2026-05-07 11:43 | 49.15048 | 17.05608 | 35978 ft | 443 kts | 311° |
| 2026-05-07 11:44 | 49.19551 | 16.99175 | 35982 ft | 443 kts | 310° |
| 2026-05-07 11:44 | 49.24035 | 16.92704 | 35985 ft | 443 kts | 310° |
| 2026-05-07 11:45 | 49.28518 | 16.86220 | 35985 ft | 444 kts | 310° |
| 2026-05-07 11:45 | 49.33018 | 16.79726 | 35983 ft | 445 kts | 310° |
| 2026-05-07 11:46 | 49.37523 | 16.73219 | 35979 ft | 445 kts | 310° |
| 2026-05-07 11:46 | 49.42020 | 16.66671 | 35977 ft | 446 kts | 310° |
| 2026-05-07 11:47 | 49.46520 | 16.60101 | 35979 ft | 447 kts | 310° |
| 2026-05-07 11:47 | 49.51024 | 16.53513 | 35975 ft | 447 kts | 310° |
| 2026-05-07 11:48 | 49.55536 | 16.46919 | 35975 ft | 447 kts | 310° |